createdAt,value
2022-12-24T00:01:34.404Z,7.85
2022-12-24T00:04:02.775Z,2.17
2022-12-24T00:06:30.689Z,4.12
2022-12-24T00:08:58.668Z,2.65
2022-12-24T00:11:26.927Z,2.40
2022-12-24T00:13:54.883Z,2.12
2022-12-24T00:16:23.046Z,2.67
2022-12-24T00:18:51.471Z,6.32
2022-12-24T00:21:19.404Z,7.32
2022-12-24T00:23:47.374Z,2.87
2022-12-24T00:26:15.764Z,3.47
2022-12-24T00:28:43.678Z,2.97
2022-12-24T00:31:14.318Z,2.17
2022-12-24T00:33:42.817Z,4.25
2022-12-24T00:36:11.040Z,1.75
2022-12-24T00:38:39.349Z,3.72
2022-12-24T00:41:25.089Z,2.70
2022-12-24T00:43:57.326Z,2.17
2022-12-24T00:46:26.750Z,1.40
2022-12-24T00:48:54.695Z,4.50
2022-12-24T00:51:23.444Z,4.30
2022-12-24T00:53:52.404Z,5.90
2022-12-24T00:56:20.519Z,5.47
2022-12-24T00:58:48.502Z,4.60
2022-12-24T01:01:17.229Z,2.37
2022-12-24T01:03:45.252Z,4.68
2022-12-24T01:06:19.552Z,5.90
2022-12-24T01:08:51.577Z,3.55
2022-12-24T01:11:19.534Z,1.92
2022-12-24T01:13:47.825Z,2.70
2022-12-24T01:16:18.823Z,3.20
2022-12-24T01:18:48.484Z,1.17
2022-12-24T01:21:16.509Z,5.35
2022-12-24T01:23:44.386Z,2.33
2022-12-24T01:26:12.976Z,1.05
2022-12-24T01:28:41.357Z,1.98
2022-12-24T01:31:18.240Z,3.40
2022-12-24T01:33:47.305Z,2.60
2022-12-24T01:36:15.278Z,2.58
2022-12-24T01:38:43.181Z,1.15
2022-12-24T01:41:38.154Z,1.87
2022-12-24T01:44:22.274Z,4.72
2022-12-24T01:46:53.996Z,5.53
2022-12-24T01:49:22.042Z,1.12
2022-12-24T01:51:56.633Z,3.45
2022-12-24T01:54:33.531Z,2.62
2022-12-24T01:57:06.963Z,1.48
2022-12-24T01:59:36.227Z,1.45
2022-12-24T02:02:05.020Z,4.00
2022-12-24T02:04:48.542Z,1.90
2022-12-24T02:07:16.500Z,0.82
2022-12-24T02:09:44.764Z,1.48
2022-12-24T02:12:12.746Z,2.90
2022-12-24T02:14:40.676Z,1.95
2022-12-24T02:17:14.802Z,0.95
2022-12-24T02:20:01.580Z,1.55
2022-12-24T02:25:06.231Z,1.83
2022-12-24T02:27:57.317Z,2.20
2022-12-24T02:30:46.383Z,0.95
2022-12-24T02:33:31.369Z,3.83
2022-12-24T02:36:32.475Z,1.55
2022-12-24T02:39:12.292Z,1.00
2022-12-24T02:42:01.777Z,2.45
2022-12-24T02:44:34.223Z,2.35
2022-12-24T02:47:02.761Z,1.92
2022-12-24T02:49:31.042Z,1.58
2022-12-24T02:51:59.200Z,1.55
2022-12-24T02:54:27.546Z,0.80
2022-12-24T02:57:31.073Z,3.97
2022-12-24T03:00:10.381Z,2.35
2022-12-24T03:03:07.869Z,0.82
2022-12-24T03:05:38.965Z,1.98
2022-12-24T03:08:42.585Z,2.53
2022-12-24T03:11:12.622Z,3.78
2022-12-24T03:13:42.231Z,3.08
2022-12-24T03:16:13.669Z,2.90
2022-12-24T03:18:45.175Z,2.60
2022-12-24T03:21:20.871Z,3.95
2022-12-24T03:23:49.158Z,3.15
2022-12-24T03:26:19.053Z,2.20
2022-12-24T03:28:47.825Z,5.43
2022-12-24T03:31:16.674Z,0.82
2022-12-24T03:33:45.440Z,2.45
2022-12-24T03:36:14.196Z,1.65
2022-12-24T03:38:42.596Z,2.10
2022-12-24T03:41:10.531Z,1.83
2022-12-24T03:43:38.447Z,5.00
2022-12-24T03:46:08.049Z,1.42
2022-12-24T03:48:36.157Z,3.55
2022-12-24T03:51:04.250Z,3.80
2022-12-24T03:53:32.476Z,2.72
2022-12-24T03:56:00.417Z,1.62
2022-12-24T03:58:28.249Z,4.32
2022-12-24T04:00:56.522Z,2.42
2022-12-24T04:03:24.956Z,3.95
2022-12-24T04:06:10.544Z,2.33
2022-12-24T04:08:39.393Z,1.62
2022-12-24T04:11:09.997Z,3.55
2022-12-24T04:13:38.513Z,2.53
2022-12-24T04:16:09.189Z,2.12
2022-12-24T04:18:37.904Z,1.62
2022-12-24T04:21:07.280Z,3.33
2022-12-24T04:23:36.676Z,1.02
2022-12-24T04:26:06.312Z,3.03
2022-12-24T04:28:35.337Z,1.65
2022-12-24T04:31:06.365Z,1.90
2022-12-24T04:33:35.296Z,1.92
2022-12-24T04:36:04.936Z,1.35
2022-12-24T04:38:33.326Z,0.85
2022-12-24T04:41:06.657Z,2.53
2022-12-24T04:43:34.875Z,1.85
2022-12-24T04:46:07.988Z,0.85
2022-12-24T04:48:36.347Z,1.05
2022-12-24T04:51:05.770Z,1.90
2022-12-24T04:53:34.600Z,3.20
2022-12-24T04:56:02.676Z,2.45
2022-12-24T04:58:30.981Z,1.95
2022-12-24T05:01:04.458Z,2.28
2022-12-24T05:03:32.780Z,2.45
2022-12-24T05:06:08.506Z,1.50
2022-12-24T05:08:36.734Z,1.60
2022-12-24T05:11:05.107Z,1.12
2022-12-24T05:13:40.686Z,4.60
2022-12-24T05:16:12.767Z,3.75
2022-12-24T05:18:40.915Z,4.10
2022-12-24T05:21:15.001Z,1.67
2022-12-24T05:24:02.858Z,2.08
2022-12-24T05:26:32.537Z,1.50
2022-12-24T05:29:02.707Z,1.30
2022-12-24T05:31:32.172Z,2.03
2022-12-24T05:34:01.489Z,4.53
2022-12-24T05:36:29.877Z,3.87
2022-12-24T05:38:57.847Z,4.37
2022-12-24T05:41:26.368Z,1.52
2022-12-24T05:43:54.455Z,3.03
2022-12-24T05:46:23.245Z,1.10
2022-12-24T05:48:52.907Z,0.73
2022-12-24T05:51:22.573Z,1.27
2022-12-24T05:53:51.341Z,2.78
2022-12-24T05:56:22.923Z,2.15
2022-12-24T05:58:52.308Z,0.88
2022-12-24T06:01:21.919Z,1.17
2022-12-24T06:03:50.949Z,0.70
2022-12-24T06:06:21.503Z,0.55
2022-12-24T06:08:50.908Z,0.85
2022-12-24T06:11:21.865Z,0.50
2022-12-24T06:13:49.828Z,1.35
2022-12-24T06:16:19.220Z,0.73
2022-12-24T06:18:47.832Z,0.50
2022-12-24T06:21:16.650Z,2.25
2022-12-24T06:23:45.494Z,0.88
2022-12-24T06:26:16.123Z,1.85
2022-12-24T06:28:44.954Z,1.52
2022-12-24T06:31:15.800Z,2.45
2022-12-24T06:33:44.303Z,1.83
2022-12-24T06:36:18.268Z,0.95
2022-12-24T06:38:47.550Z,2.62
2022-12-24T06:41:17.017Z,1.60
2022-12-24T06:43:50.177Z,2.37
2022-12-24T06:46:19.474Z,0.95
2022-12-24T06:48:47.701Z,1.87
2022-12-24T06:51:17.259Z,2.87
2022-12-24T06:53:46.105Z,3.33
2022-12-24T06:56:14.684Z,3.65
2022-12-24T06:58:43.444Z,1.77
2022-12-24T07:01:14.286Z,1.52
2022-12-24T07:03:42.772Z,2.85
2022-12-24T07:06:24.797Z,1.37
2022-12-24T07:08:53.573Z,2.53
2022-12-24T07:11:22.272Z,1.35
2022-12-24T07:13:50.239Z,0.73
2022-12-24T07:16:18.611Z,1.23
2022-12-24T07:18:46.581Z,1.73
2022-12-24T07:21:14.724Z,9.90
2022-12-24T07:23:43.014Z,8.98
2022-12-24T07:26:11.639Z,5.45
2022-12-24T07:28:39.657Z,1.08
2022-12-24T07:31:08.048Z,1.67
2022-12-24T07:33:36.013Z,0.55
2022-12-24T07:36:06.823Z,0.70
2022-12-24T07:38:35.712Z,0.50
2022-12-24T07:41:04.109Z,1.00
2022-12-24T07:43:33.766Z,0.65
2022-12-24T07:46:02.504Z,0.85
2022-12-24T07:48:31.139Z,0.85
2022-12-24T07:50:59.848Z,2.87
2022-12-24T07:53:29.061Z,6.68
2022-12-24T07:55:57.347Z,2.42
2022-12-24T07:58:25.374Z,2.42
2022-12-24T08:00:58.603Z,2.22
2022-12-24T08:03:27.144Z,3.70
2022-12-24T08:05:55.394Z,1.25
2022-12-24T08:08:23.470Z,0.60
2022-12-24T08:10:52.277Z,0.70
2022-12-24T08:13:20.376Z,0.35
2022-12-24T08:15:48.480Z,0.90
2022-12-24T08:18:16.752Z,0.70
2022-12-24T08:20:44.715Z,0.50
2022-12-24T08:23:12.653Z,0.50
2022-12-24T08:25:46.123Z,0.52
2022-12-24T08:28:16.082Z,0.77
2022-12-24T08:30:44.712Z,0.40
2022-12-24T08:33:12.668Z,0.40
2022-12-24T08:35:40.556Z,0.50
2022-12-24T08:38:08.957Z,0.70
2022-12-24T08:40:36.953Z,0.30
2022-12-24T08:43:05.086Z,1.65
2022-12-24T08:45:39.927Z,0.93
2022-12-24T08:48:09.743Z,7.30
2022-12-24T08:50:42.103Z,6.35
2022-12-24T08:53:10.800Z,5.82
2022-12-24T08:55:39.746Z,3.12
2022-12-24T08:58:07.856Z,2.50
2022-12-24T09:00:35.938Z,1.67
2022-12-24T09:03:04.436Z,2.12
2022-12-24T09:05:32.632Z,2.33
2022-12-24T09:08:00.678Z,3.70
2022-12-24T09:10:29.078Z,0.50
2022-12-24T09:12:57.087Z,1.45
2022-12-24T09:15:25.064Z,1.55
2022-12-24T09:17:53.444Z,1.05
2022-12-24T09:20:21.590Z,1.27
2022-12-24T09:22:49.671Z,1.05
2022-12-24T09:25:18.286Z,3.13
2022-12-24T09:27:46.332Z,0.88
2022-12-24T09:30:15.021Z,0.60
2022-12-24T09:32:43.455Z,0.50
2022-12-24T09:35:11.479Z,1.67
2022-12-24T09:37:39.415Z,0.70
2022-12-24T09:40:09.931Z,0.85
2022-12-24T09:42:53.455Z,0.30
2022-12-24T09:45:30.486Z,4.03
2022-12-24T09:48:02.965Z,5.95
2022-12-24T09:50:53.957Z,4.60
2022-12-24T09:53:41.359Z,0.93
2022-12-24T09:56:18.065Z,0.52
2022-12-24T09:58:53.790Z,0.93
2022-12-24T10:01:22.220Z,0.50
2022-12-24T10:03:50.880Z,0.77
2022-12-24T10:06:29.163Z,0.82
2022-12-24T10:09:14.700Z,1.60
2022-12-24T10:11:56.699Z,5.35
2022-12-24T10:14:40.220Z,4.37
2022-12-24T10:17:25.857Z,4.50
2022-12-24T10:20:12.149Z,5.37
2022-12-24T10:22:57.547Z,5.83
2022-12-24T10:25:38.023Z,11.82
2022-12-24T10:28:15.133Z,6.47
2022-12-24T10:30:45.381Z,9.40
2022-12-24T10:33:27.899Z,8.75
2022-12-24T10:35:57.097Z,3.28
2022-12-24T10:38:25.968Z,12.15
2022-12-24T10:40:55.958Z,8.98
2022-12-24T10:43:25.972Z,13.23
2022-12-24T10:46:08.061Z,10.23
2022-12-24T10:49:04.051Z,9.77
2022-12-24T10:52:04.856Z,5.35
2022-12-24T10:54:39.519Z,2.22
2022-12-24T10:57:24.337Z,2.70
2022-12-24T10:59:56.543Z,2.15
2022-12-24T11:02:37.556Z,0.60
2022-12-24T11:05:15.501Z,0.30
2022-12-24T11:07:43.950Z,0.47
2022-12-24T11:10:24.047Z,0.50
2022-12-24T11:13:06.213Z,0.50
2022-12-24T11:15:40.656Z,1.27
2022-12-24T11:18:14.927Z,3.17
2022-12-24T11:20:49.801Z,2.55
2022-12-24T11:23:18.228Z,2.65
2022-12-24T11:25:51.748Z,14.18
2022-12-24T11:28:40.065Z,19.80
2022-12-24T11:31:21.694Z,19.77
2022-12-24T11:33:52.924Z,7.03
2022-12-24T11:36:23.782Z,7.40
2022-12-24T11:38:57.104Z,2.67
2022-12-24T11:41:26.640Z,1.83
2022-12-24T11:44:04.132Z,3.05
2022-12-24T11:46:41.787Z,1.25
2022-12-24T11:49:17.435Z,1.15
2022-12-24T11:52:17.301Z,0.98
2022-12-24T11:55:03.019Z,1.37
2022-12-24T11:57:59.187Z,1.80
2022-12-24T12:00:27.629Z,0.40
2022-12-24T12:02:58.994Z,0.55
2022-12-24T12:05:30.189Z,0.40
2022-12-24T12:08:15.792Z,0.62
2022-12-24T12:10:44.911Z,1.85
2022-12-24T12:13:16.357Z,1.48
2022-12-24T12:16:23.556Z,1.05
2022-12-24T12:19:07.466Z,0.70
2022-12-24T12:21:44.520Z,4.90
2022-12-24T12:24:31.745Z,1.23
2022-12-24T12:27:29.280Z,1.62
2022-12-24T12:30:07.884Z,2.85
2022-12-24T12:32:43.808Z,0.75
2022-12-24T12:35:21.733Z,1.10
2022-12-24T12:37:57.061Z,1.65
2022-12-24T12:40:41.977Z,0.93
2022-12-24T12:43:49.632Z,0.88
2022-12-24T12:46:44.154Z,1.37
2022-12-24T12:49:26.243Z,0.40
2022-12-24T12:52:26.815Z,0.30
2022-12-24T12:55:04.598Z,0.50
2022-12-24T12:57:36.645Z,0.50
2022-12-24T13:00:08.400Z,0.40
2022-12-24T13:02:56.004Z,0.68
2022-12-24T13:05:39.068Z,0.50
2022-12-24T13:08:17.087Z,0.40
2022-12-24T13:11:08.592Z,0.40
2022-12-24T13:14:02.506Z,3.90
2022-12-24T13:16:45.523Z,0.32
2022-12-24T13:19:17.047Z,0.40
2022-12-24T13:21:46.530Z,0.50
2022-12-24T13:24:26.138Z,1.60
2022-12-24T13:27:21.909Z,0.47
2022-12-24T13:30:04.945Z,0.35
2022-12-24T13:35:19.384Z,0.52
2022-12-24T13:37:48.837Z,0.30
2022-12-24T13:40:22.709Z,0.70
2022-12-24T13:43:05.012Z,0.70
2022-12-24T13:45:39.313Z,0.55
2022-12-24T13:48:07.371Z,0.50
2022-12-24T13:50:40.549Z,0.50
2022-12-24T13:53:52.835Z,0.40
2022-12-24T13:56:27.214Z,1.70
2022-12-24T13:59:13.824Z,0.98
2022-12-24T14:01:42.931Z,0.32
2022-12-24T14:04:23.675Z,0.43
2022-12-24T14:06:52.860Z,0.40
2022-12-24T14:09:25.350Z,0.32
2022-12-24T14:11:53.472Z,0.35
2022-12-24T14:14:36.669Z,0.30
2022-12-24T14:17:19.792Z,1.00
2022-12-24T14:19:52.649Z,0.40
2022-12-24T14:22:26.309Z,0.50
2022-12-24T14:25:14.399Z,0.50
2022-12-24T14:27:42.424Z,0.57
2022-12-24T14:30:20.964Z,0.40
2022-12-24T14:32:50.622Z,0.77
2022-12-24T14:35:26.175Z,0.60
2022-12-24T14:38:19.020Z,1.12
2022-12-24T14:40:57.637Z,1.10
2022-12-24T14:43:34.326Z,1.33
2022-12-24T14:46:12.899Z,1.05
2022-12-24T14:48:50.091Z,1.58
2022-12-24T14:51:37.585Z,1.05
2022-12-24T14:56:45.913Z,1.35
2022-12-24T14:59:20.942Z,0.50
2022-12-24T15:01:49.537Z,0.50
2022-12-24T15:04:18.667Z,0.30
2022-12-24T15:06:52.827Z,0.30
2022-12-24T15:09:30.004Z,0.40
2022-12-24T15:12:00.892Z,0.90
2022-12-24T15:14:30.848Z,0.30
2022-12-24T15:17:05.851Z,1.05
2022-12-24T15:19:42.640Z,2.15
2022-12-24T15:22:23.945Z,0.50
2022-12-24T15:24:52.789Z,0.68
2022-12-24T15:27:24.324Z,0.47
2022-12-24T15:29:56.660Z,0.50
2022-12-24T15:32:25.077Z,0.30
2022-12-24T15:34:55.211Z,0.55
2022-12-24T15:37:26.138Z,0.47
2022-12-24T15:39:58.463Z,0.40
2022-12-24T15:42:27.326Z,0.62
2022-12-24T15:44:55.733Z,0.43
2022-12-24T15:47:28.622Z,0.43
2022-12-24T15:49:57.544Z,0.30
2022-12-24T15:52:25.865Z,0.30
2022-12-24T15:54:57.956Z,0.35
2022-12-24T15:57:31.096Z,0.40
2022-12-24T16:00:00.554Z,0.45
2022-12-24T16:02:37.831Z,0.47
2022-12-24T16:05:28.000Z,1.37
2022-12-24T16:08:09.756Z,0.70
2022-12-24T16:10:44.195Z,0.37
2022-12-24T16:13:19.729Z,0.82
2022-12-24T16:15:51.093Z,0.73
2022-12-24T16:18:23.931Z,0.95
2022-12-24T16:20:53.628Z,1.75
2022-12-24T16:23:24.040Z,0.50
2022-12-24T16:25:55.936Z,0.60
2022-12-24T16:28:23.942Z,0.40
2022-12-24T16:30:55.869Z,0.45
2022-12-24T16:33:24.087Z,0.45
2022-12-24T16:35:52.702Z,0.40
2022-12-24T16:38:21.012Z,0.60
2022-12-24T16:40:49.224Z,0.60
2022-12-24T16:43:36.147Z,0.35
2022-12-24T16:46:05.930Z,0.40
2022-12-24T16:48:37.153Z,0.68
2022-12-24T16:51:05.328Z,0.60
2022-12-24T16:53:33.240Z,0.50
2022-12-24T16:56:03.044Z,3.12
2022-12-24T16:58:31.231Z,0.52
2022-12-24T17:00:59.977Z,0.93
2022-12-24T17:03:28.445Z,1.00
2022-12-24T17:05:56.481Z,2.22
2022-12-24T17:08:24.672Z,0.55
2022-12-24T17:10:53.159Z,0.98
2022-12-24T17:13:21.189Z,1.98
2022-12-24T17:15:49.207Z,0.80
2022-12-24T17:18:18.630Z,0.88
2022-12-24T17:21:00.804Z,0.68
2022-12-24T17:23:29.150Z,0.60
2022-12-24T17:25:58.230Z,0.70
2022-12-24T17:28:26.325Z,0.65
2022-12-24T17:30:54.663Z,0.60
2022-12-24T17:33:22.675Z,0.40
2022-12-24T17:35:52.506Z,1.02
2022-12-24T17:38:21.023Z,0.93
2022-12-24T17:40:49.083Z,0.80
2022-12-24T17:43:18.011Z,0.90
2022-12-24T17:45:46.512Z,0.40
2022-12-24T17:48:14.491Z,1.50
2022-12-24T17:50:42.388Z,1.60
2022-12-24T17:53:10.692Z,4.03
2022-12-24T17:55:43.242Z,5.05
2022-12-24T17:58:12.148Z,2.92
2022-12-24T18:00:40.315Z,1.02
2022-12-24T18:03:13.350Z,0.47
2022-12-24T18:05:41.483Z,0.40
2022-12-24T18:08:10.097Z,0.90
2022-12-24T18:10:37.995Z,0.50
2022-12-24T18:13:06.121Z,0.40
2022-12-24T18:15:39.114Z,0.50
2022-12-24T18:18:07.746Z,0.40
2022-12-24T18:20:42.707Z,0.50
2022-12-24T18:23:14.148Z,0.40
2022-12-24T18:25:42.488Z,0.45
2022-12-24T18:28:10.766Z,0.70
2022-12-24T18:30:38.783Z,0.55
2022-12-24T18:33:07.229Z,0.40
2022-12-24T18:35:35.323Z,0.85
2022-12-24T18:38:03.187Z,1.25
2022-12-24T18:40:31.752Z,0.68
2022-12-24T18:42:59.791Z,0.40
2022-12-24T18:45:27.863Z,0.93
2022-12-24T18:47:56.318Z,0.47
2022-12-24T18:50:24.548Z,0.40
2022-12-24T18:52:52.530Z,0.50
2022-12-24T18:55:20.861Z,0.50
2022-12-24T18:57:48.755Z,0.40
2022-12-24T19:00:16.908Z,0.60
2022-12-24T19:02:45.331Z,0.40
2022-12-24T19:05:15.396Z,0.62
2022-12-24T19:07:43.341Z,0.47
2022-12-24T19:10:12.059Z,0.40
2022-12-24T19:12:40.043Z,0.57
2022-12-24T19:15:08.269Z,0.40
2022-12-24T19:17:36.684Z,0.40
2022-12-24T19:20:05.027Z,0.77
2022-12-24T19:22:33.035Z,0.55
2022-12-24T19:25:01.357Z,0.30
2022-12-24T19:27:29.287Z,1.15
2022-12-24T19:29:57.310Z,0.40
2022-12-24T19:32:25.599Z,0.60
2022-12-24T19:34:53.554Z,0.40
2022-12-24T19:37:21.544Z,0.40
2022-12-24T19:39:49.843Z,0.45
2022-12-24T19:42:18.274Z,0.40
2022-12-24T19:44:46.260Z,0.40
2022-12-24T19:47:14.516Z,0.40
2022-12-24T19:49:42.626Z,0.40
2022-12-24T19:52:10.698Z,0.43
2022-12-24T19:54:39.509Z,0.40
2022-12-24T19:57:07.519Z,0.40
2022-12-24T19:59:37.124Z,0.50
2022-12-24T20:02:06.113Z,0.45
2022-12-24T20:04:34.896Z,0.60
2022-12-24T20:07:02.777Z,1.10
2022-12-24T20:09:33.870Z,0.85
2022-12-24T20:12:02.290Z,0.40
2022-12-24T20:14:30.487Z,2.15
2022-12-24T20:16:58.461Z,0.43
2022-12-24T20:19:26.990Z,0.35
2022-12-24T20:21:54.943Z,0.60
2022-12-24T20:24:23.047Z,0.30
2022-12-24T20:26:51.331Z,0.40
2022-12-24T20:29:19.380Z,0.37
2022-12-24T20:31:47.445Z,0.40
2022-12-24T20:34:15.764Z,0.40
2022-12-24T20:36:44.015Z,0.50
2022-12-24T20:39:12.554Z,0.40
2022-12-24T20:41:40.925Z,0.40
2022-12-24T20:44:11.624Z,1.12
2022-12-24T20:46:39.561Z,0.40
2022-12-24T20:49:07.906Z,0.40
2022-12-24T20:51:36.411Z,0.40
2022-12-24T20:54:04.410Z,0.43
2022-12-24T20:56:32.736Z,0.40
2022-12-24T20:59:01.541Z,0.57
2022-12-24T21:01:29.776Z,1.58
2022-12-24T21:04:00.657Z,0.40
2022-12-24T21:06:28.691Z,0.77
2022-12-24T21:08:56.697Z,0.35
2022-12-24T21:11:44.041Z,0.32
2022-12-24T21:14:13.105Z,0.52
2022-12-24T21:16:42.007Z,0.40
2022-12-24T21:19:14.499Z,0.40
2022-12-24T21:21:44.261Z,0.55
2022-12-24T21:24:12.371Z,0.40
2022-12-24T21:26:40.575Z,0.40
2022-12-24T21:29:09.637Z,0.45
2022-12-24T21:31:38.169Z,0.40
2022-12-24T21:34:06.462Z,0.40
2022-12-24T21:36:34.939Z,0.50
2022-12-24T21:39:03.102Z,0.50
2022-12-24T21:41:31.319Z,0.62
2022-12-24T21:44:01.396Z,0.43
2022-12-24T21:46:29.696Z,0.45
2022-12-24T21:49:16.601Z,0.40
2022-12-24T21:51:47.075Z,0.40
2022-12-24T21:54:27.549Z,0.40
2022-12-24T21:57:21.917Z,0.55
2022-12-24T21:59:51.857Z,1.25
2022-12-24T22:02:23.037Z,0.40
2022-12-24T22:04:51.560Z,0.50
2022-12-24T22:07:45.971Z,0.50
2022-12-24T22:10:33.308Z,0.77
2022-12-24T22:13:06.395Z,0.47
2022-12-24T22:15:36.119Z,0.55
2022-12-24T22:18:04.372Z,0.40
2022-12-24T22:20:32.362Z,0.40
2022-12-24T22:23:00.701Z,0.50
2022-12-24T22:25:30.122Z,0.50
2022-12-24T22:27:59.151Z,0.40
2022-12-24T22:30:27.897Z,0.40
2022-12-24T22:32:55.810Z,0.45
2022-12-24T22:35:23.895Z,0.40
2022-12-24T22:37:56.044Z,0.43
2022-12-24T22:40:28.289Z,0.40
2022-12-24T22:42:56.817Z,0.50
2022-12-24T22:45:24.894Z,0.98
2022-12-24T22:47:53.040Z,0.40
2022-12-24T22:50:21.456Z,0.40
2022-12-24T22:52:49.461Z,0.32
2022-12-24T22:55:17.427Z,0.40
2022-12-24T22:57:45.973Z,0.40
2022-12-24T23:00:51.883Z,1.05
2022-12-24T23:03:22.530Z,0.40
2022-12-24T23:06:02.060Z,0.40
2022-12-24T23:08:31.484Z,0.37
2022-12-24T23:11:14.208Z,0.40
2022-12-24T23:14:02.875Z,0.82
2022-12-24T23:16:31.658Z,0.55
2022-12-24T23:19:02.502Z,0.30
2022-12-24T23:21:30.781Z,0.30
2022-12-24T23:24:00.188Z,0.40
2022-12-24T23:26:29.418Z,0.40
2022-12-24T23:28:58.010Z,0.43
2022-12-24T23:31:26.877Z,1.65
2022-12-24T23:33:55.279Z,0.40
2022-12-24T23:36:23.432Z,0.50
2022-12-24T23:38:53.337Z,0.50
2022-12-24T23:41:24.123Z,0.40
2022-12-24T23:43:52.503Z,0.40
2022-12-24T23:46:21.073Z,0.32
2022-12-24T23:48:54.055Z,0.50
2022-12-24T23:51:24.223Z,0.40
2022-12-24T23:53:54.162Z,0.40
2022-12-24T23:56:23.415Z,0.37
2022-12-24T23:58:52.037Z,0.40
